Time;durP1;ratioP1;P1;durP2;ratioP2;P2;SDS_P1;SDS_P2;PMS_P1;PMS_P2;Temp;Humidity;BMP_temperature;BMP_pressure;BME280_temperature;BME280_humidity;BME280_pressure;Samples;Min_cycle;Max_cycle;Signal;HPM_P1;HPM_P2
2023/10/06 00:02:26;;;;;;;6.65;3.28;;;;;10.30;99605.00;;;;5078511;28;20098;-64
2023/10/06 00:04:53;;;;;;;6.03;3.00;;;;;10.30;99609.00;;;;5075992;28;20090;-64
2023/10/06 00:07:21;;;;;;;7.50;3.65;;;;;10.30;99603.00;;;;5087252;28;20068;-64
2023/10/06 00:09:47;;;;;;;7.43;2.85;;;;;10.30;99600.00;;;;5092900;28;20044;-65
2023/10/06 00:12:16;;;;;;;6.63;3.15;;;;;10.30;99602.00;;;;5093166;28;20469;-65
2023/10/06 00:14:43;;;;;;;5.38;2.80;;;;;10.20;99602.00;;;;5094033;28;20054;-65
2023/10/06 00:17:17;;;;;;;6.57;3.05;;;;;10.20;99596.00;;;;5093638;28;20059;-65
2023/10/06 00:19:46;;;;;;;6.93;3.17;;;;;10.20;99602.00;;;;5095785;28;20044;-65
2023/10/06 00:24:50;;;;;;;4.18;2.97;;;;;10.20;99594.00;;;;5094791;28;20044;-65
2023/10/06 00:27:29;;;;;;;7.85;3.10;;;;;10.10;99602.00;;;;5096703;28;20048;-65
2023/10/06 00:29:56;;;;;;;6.20;3.53;;;;;10.10;99594.00;;;;5087476;28;20477;-65
2023/10/06 00:32:26;;;;;;;8.05;3.50;;;;;10.10;99599.00;;;;5086081;28;20048;-65
2023/10/06 00:35:08;;;;;;;5.65;3.17;;;;;10.20;99603.00;;;;5093225;28;20052;-64
2023/10/06 00:37:41;;;;;;;4.88;2.95;;;;;10.20;99605.00;;;;5091019;28;20505;-64
2023/10/06 00:40:24;;;;;;;6.60;3.22;;;;;10.10;99603.00;;;;5093799;28;20034;-64
2023/10/06 00:42:56;;;;;;;4.18;3.05;;;;;10.00;99597.00;;;;5095268;28;20052;-64
2023/10/06 00:45:26;;;;;;;4.72;3.08;;;;;10.00;99594.00;;;;5094945;28;20056;-65
2023/10/06 00:47:53;;;;;;;4.32;2.95;;;;;10.00;99594.00;;;;5094826;28;20096;-64
2023/10/06 00:50:24;;;;;;;5.80;2.83;;;;;9.90;99588.00;;;;5080707;28;20460;-64
2023/10/06 00:52:52;;;;;;;6.72;3.50;;;;;9.90;99584.00;;;;5075536;28;20056;-64
2023/10/06 00:55:19;;;;;;;5.43;3.08;;;;;9.90;99593.00;;;;5072086;28;20060;-64
2023/10/06 00:57:52;;;;;;;6.43;3.42;;;;;9.90;99585.00;;;;5073675;28;20040;-64
2023/10/06 01:00:24;;;;;;;5.65;2.70;;;;;9.90;99582.00;;;;5075014;28;20041;-64
2023/10/06 01:02:51;;;;;;;7.25;3.67;;;;;9.90;99583.00;;;;5078133;28;20132;-65
2023/10/06 01:05:21;;;;;;;6.75;3.33;;;;;9.80;99578.00;;;;5081656;28;20116;-65
2023/10/06 01:07:49;;;;;;;4.18;2.97;;;;;9.80;99583.00;;;;5082184;28;20068;-65
2023/10/06 01:10:34;;;;;;;8.90;3.38;;;;;9.90;99578.00;;;;5081159;28;20045;-63
2023/10/06 01:13:12;;;;;;;4.32;2.95;;;;;9.80;99584.00;;;;5080101;28;20048;-65
2023/10/06 01:15:49;;;;;;;6.07;2.90;;;;;9.80;99573.00;;;;5078368;28;20064;-61
2023/10/06 01:18:21;;;;;;;6.35;3.13;;;;;9.80;99574.00;;;;5074890;28;20041;-63
2023/10/06 01:20:48;;;;;;;7.15;3.20;;;;;9.70;99577.00;;;;5074636;28;20076;-63
2023/10/06 01:23:22;;;;;;;4.35;3.13;;;;;9.70;99584.00;;;;5071265;28;20052;-63
2023/10/06 01:25:59;;;;;;;6.13;3.17;;;;;9.80;99579.00;;;;5070956;28;20115;-64
2023/10/06 01:28:26;;;;;;;4.00;3.00;;;;;9.80;99586.00;;;;5071146;28;20477;-65
2023/10/06 01:30:53;;;;;;;5.32;2.80;;;;;9.70;99586.00;;;;5072555;28;20048;-65
2023/10/06 01:33:20;;;;;;;4.80;3.10;;;;;9.70;99584.00;;;;5072186;28;20211;-64
2023/10/06 01:35:46;;;;;;;4.20;2.88;;;;;9.70;99585.00;;;;5072190;28;20560;-64
2023/10/06 01:38:22;;;;;;;5.20;2.90;;;;;9.70;99591.00;;;;5072225;28;20041;-64
2023/10/06 01:40:52;;;;;;;6.53;3.17;;;;;9.70;99584.00;;;;5071021;28;20131;-64
2023/10/06 01:43:23;;;;;;;4.03;2.92;;;;;9.60;99584.00;;;;5054472;28;20045;-63
2023/10/06 01:45:50;;;;;;;4.10;2.83;;;;;9.50;99581.00;;;;5070502;28;20072;-66
2023/10/06 01:50:49;;;;;;;3.75;2.85;;;;;9.60;99580.00;;;;5070789;28;20044;-66
2023/10/06 01:53:19;;;;;;;5.50;3.05;;;;;9.60;99581.00;;;;5072129;28;20047;-65
2023/10/06 01:55:51;;;;;;;8.15;2.92;;;;;9.50;99578.00;;;;5070476;28;20437;-66
2023/10/06 01:58:19;;;;;;;5.72;3.20;;;;;9.50;99575.00;;;;5070606;28;20143;-64
2023/10/06 02:00:48;;;;;;;4.97;3.00;;;;;9.40;99574.00;;;;5070687;28;20497;-65
2023/10/06 02:03:21;;;;;;;4.82;2.55;;;;;9.40;99575.00;;;;5070859;28;20135;-64
2023/10/06 02:05:48;;;;;;;5.32;2.85;;;;;9.50;99574.00;;;;5071500;28;20052;-64
2023/10/06 02:08:21;;;;;;;5.35;3.53;;;;;9.50;99581.00;;;;5070418;28;20055;-64
2023/10/06 02:10:48;;;;;;;3.28;2.55;;;;;9.50;99572.00;;;;5071915;28;20055;-64
2023/10/06 02:13:20;;;;;;;6.78;3.20;;;;;9.50;99562.00;;;;5070527;28;20052;-64
2023/10/06 02:15:56;;;;;;;4.10;2.88;;;;;9.50;99565.00;;;;5072932;28;20144;-64
2023/10/06 02:18:23;;;;;;;4.78;2.80;;;;;9.50;99550.00;;;;5088587;28;20386;-64
2023/10/06 02:20:49;;;;;;;7.60;3.33;;;;;9.40;99553.00;;;;5095622;28;20097;-64
2023/10/06 02:23:16;;;;;;;6.53;2.78;;;;;9.30;99553.00;;;;5095337;28;20044;-64
2023/10/06 02:25:42;;;;;;;4.00;2.95;;;;;9.30;99564.00;;;;5094862;28;20074;-63
2023/10/06 02:28:10;;;;;;;8.00;3.33;;;;;9.20;99564.00;;;;5093861;28;20071;-64
2023/10/06 02:30:37;;;;;;;6.18;2.60;;;;;9.10;99557.00;;;;5095431;28;20040;-64
2023/10/06 02:33:07;;;;;;;5.70;3.03;;;;;9.10;99552.00;;;;5093960;28;20058;-64
2023/10/06 02:35:44;;;;;;;5.40;2.95;;;;;9.00;99549.00;;;;5093518;28;20161;-63
2023/10/06 02:38:12;;;;;;;5.65;2.65;;;;;9.00;99552.00;;;;5093703;28;20040;-65
2023/10/06 02:40:45;;;;;;;4.72;3.33;;;;;9.00;99551.00;;;;5095292;28;20059;-65
2023/10/06 02:43:20;;;;;;;6.65;3.00;;;;;8.90;99549.00;;;;5093848;28;20044;-65
2023/10/06 02:45:46;;;;;;;4.70;2.88;;;;;8.80;99546.00;;;;5093353;28;20048;-65
2023/10/06 02:48:22;;;;;;;11.02;3.28;;;;;8.80;99552.00;;;;5094757;28;20576;-64
2023/10/06 02:50:55;;;;;;;5.80;2.90;;;;;8.80;99535.00;;;;5094911;28;20496;-65
2023/10/06 02:53:23;;;;;;;6.65;2.90;;;;;8.80;99542.00;;;;5094794;28;20051;-65
2023/10/06 02:55:55;;;;;;;4.13;2.67;;;;;8.80;99541.00;;;;5093429;28;20040;-65
2023/10/06 02:58:30;;;;;;;6.43;2.90;;;;;8.70;99530.00;;;;5093254;28;20044;-65
2023/10/06 03:00:58;;;;;;;6.97;3.10;;;;;8.70;99537.00;;;;5094636;28;20036;-65
2023/10/06 03:03:28;;;;;;;16.38;10.88;;;;;8.70;99536.00;;;;5092965;28;20516;-65
2023/10/06 03:05:57;;;;;;;6.55;3.75;;;;;8.70;99527.00;;;;5093368;28;20466;-65
2023/10/06 03:08:29;;;;;;;4.35;2.67;;;;;8.80;99530.00;;;;5094587;28;20082;-65
2023/10/06 03:10:56;;;;;;;4.23;2.83;;;;;8.80;99531.00;;;;5093195;28;20044;-65
2023/10/06 03:13:32;;;;;;;5.88;2.63;;;;;8.90;99526.00;;;;5076280;28;20062;-65
2023/10/06 03:16:01;;;;;;;3.85;2.70;;;;;9.00;99535.00;;;;5092968;28;20046;-65
2023/10/06 03:18:28;;;;;;;6.93;4.75;;;;;8.90;99528.00;;;;5076467;28;20422;-65
2023/10/06 03:21:05;;;;;;;3.75;2.85;;;;;8.90;99516.00;;;;5094441;28;20500;-65
2023/10/06 03:23:38;;;;;;;6.78;3.00;;;;;8.80;99523.00;;;;5094040;28;20044;-65
2023/10/06 03:26:51;;;;;;;;;;;;;8.70;99525.00;;;;5094409;28;20560;-65
2023/10/06 03:28:53;;;;;;;5.57;3.25;;;;;8.50;99516.00;;;;5076578;28;20019;-65
2023/10/06 03:33:52;;;;;;;5.03;3.40;;;;;8.50;99520.00;;;;5092692;28;20059;-64
2023/10/06 03:36:56;;;;;;;6.60;3.30;;;;;8.60;99528.00;;;;5093193;28;20135;-66
2023/10/06 03:39:21;;;;;;;4.28;3.13;;;;;8.50;99530.00;;;;5088749;28;20105;-64
2023/10/06 03:41:52;;;;;;;5.68;2.90;;;;;8.50;99519.00;;;;5092689;28;20122;-64
2023/10/06 03:44:26;;;;;;;4.65;2.75;;;;;8.50;99530.00;;;;5093652;28;20047;-65
2023/10/06 03:46:55;;;;;;;3.13;2.50;;;;;8.50;99527.00;;;;5093001;28;20052;-64
2023/10/06 03:49:22;;;;;;;5.22;3.10;;;;;8.50;99526.00;;;;5093076;28;20052;-64
2023/10/06 03:51:51;;;;;;;19.35;15.18;;;;;8.60;99525.00;;;;5093023;28;20048;-64
2023/10/06 03:54:18;;;;;;;31.90;18.60;;;;;8.70;99536.00;;;;5093468;28;20047;-64
2023/10/06 03:56:49;;;;;;;7.95;4.35;;;;;8.70;99532.00;;;;5093553;28;20050;-65
2023/10/06 03:59:16;;;;;;;5.05;3.80;;;;;8.70;99527.00;;;;5093505;28;20512;-65
2023/10/06 04:01:46;;;;;;;5.40;3.30;;;;;8.60;99525.00;;;;5093715;28;20040;-64
2023/10/06 04:04:21;;;;;;;3.88;2.75;;;;;8.50;99522.00;;;;5092994;28;20109;-65
2023/10/06 04:06:48;;;;;;;5.03;2.80;;;;;8.50;99520.00;;;;5093318;28;20048;-64
2023/10/06 04:09:21;;;;;;;4.40;2.58;;;;;8.50;99513.00;;;;5093544;28;20059;-64
2023/10/06 04:11:47;;;;;;;6.13;2.72;;;;;8.50;99517.00;;;;5093313;28;20043;-64
2023/10/06 04:14:14;;;;;;;5.03;3.15;;;;;8.50;99519.00;;;;5092869;28;20115;-64
2023/10/06 04:16:45;;;;;;;6.13;3.88;;;;;8.60;99518.00;;;;5093453;28;20390;-64
2023/10/06 04:19:15;;;;;;;5.28;3.13;;;;;8.60;99523.00;;;;5093287;28;20036;-64
2023/10/06 04:21:42;;;;;;;7.53;2.97;;;;;8.70;99525.00;;;;5091949;28;20071;-63
2023/10/06 04:24:09;;;;;;;7.10;2.72;;;;;8.80;99530.00;;;;5092557;28;20070;-64
2023/10/06 04:26:36;;;;;;;6.57;3.28;;;;;8.80;99522.00;;;;5091839;28;20158;-64
2023/10/06 04:29:04;;;;;;;5.05;2.95;;;;;8.70;99519.00;;;;5093192;28;20040;-64
2023/10/06 04:31:31;;;;;;;5.97;3.10;;;;;8.60;99512.00;;;;5093205;28;20063;-64
2023/10/06 04:33:58;;;;;;;3.30;2.60;;;;;8.60;99519.00;;;;5091298;28;20075;-64
2023/10/06 04:36:25;;;;;;;10.52;6.07;;;;;8.60;99516.00;;;;5092838;28;20050;-64
2023/10/06 04:38:51;;;;;;;11.23;5.68;;;;;8.50;99517.00;;;;5092525;28;20532;-64
2023/10/06 04:41:20;;;;;;;8.10;3.90;;;;;8.50;99530.00;;;;5091861;28;20071;-64
2023/10/06 04:43:47;;;;;;;8.55;3.58;;;;;8.50;99533.00;;;;5092395;28;20128;-64
2023/10/06 04:46:14;;;;;;;6.70;2.83;;;;;8.60;99545.00;;;;5092807;28;20040;-64
2023/10/06 04:48:41;;;;;;;4.07;2.90;;;;;8.60;99543.00;;;;5092881;28;20036;-64
2023/10/06 04:51:13;;;;;;;6.30;3.22;;;;;8.60;99542.00;;;;5091645;28;20382;-64
2023/10/06 04:53:40;;;;;;;7.25;3.33;;;;;8.60;99542.00;;;;5092059;28;20051;-64
2023/10/06 04:56:10;;;;;;;7.88;3.35;;;;;8.60;99538.00;;;;5092799;28;20130;-64
2023/10/06 04:58:39;;;;;;;4.78;3.30;;;;;8.50;99546.00;;;;5092795;28;20081;-64
2023/10/06 05:01:07;;;;;;;3.50;2.95;;;;;8.50;99538.00;;;;5092879;28;20504;-65
2023/10/06 05:03:45;;;;;;;5.38;2.95;;;;;8.60;99539.00;;;;5090927;28;20568;-65
2023/10/06 05:06:16;;;;;;;6.22;3.28;;;;;8.60;99538.00;;;;5092851;28;20052;-65
2023/10/06 05:08:47;;;;;;;4.22;2.75;;;;;8.60;99540.00;;;;5092558;28;20044;-64
2023/10/06 05:11:20;;;;;;;5.63;2.70;;;;;8.60;99544.00;;;;5092516;28;20191;-65
2023/10/06 05:13:52;;;;;;;5.43;2.78;;;;;8.70;99540.00;;;;5091838;28;20043;-64
2023/10/06 05:16:19;;;;;;;4.60;2.85;;;;;8.60;99539.00;;;;5091331;28;20044;-62
2023/10/06 05:18:47;;;;;;;6.80;3.25;;;;;8.60;99542.00;;;;5091040;28;20524;-64
2023/10/06 05:21:15;;;;;;;3.17;2.60;;;;;8.60;99537.00;;;;5092527;28;20044;-64
2023/10/06 05:23:42;;;;;;;6.15;3.25;;;;;8.60;99541.00;;;;5091815;28;20123;-64
2023/10/06 05:26:10;;;;;;;3.50;2.97;;;;;8.70;99533.00;;;;5092326;28;20040;-64
2023/10/06 05:28:37;;;;;;;3.65;2.75;;;;;8.70;99541.00;;;;5091119;28;20062;-65
2023/10/06 05:31:07;;;;;;;6.45;3.05;;;;;8.60;99536.00;;;;5091004;28;20573;-64
2023/10/06 05:33:34;;;;;;;5.05;3.08;;;;;8.50;99530.00;;;;5091793;28;20044;-64
2023/10/06 05:36:09;;;;;;;5.35;3.45;;;;;8.30;99533.00;;;;5091226;28;20102;-64
2023/10/06 05:38:37;;;;;;;5.97;3.40;;;;;8.30;99528.00;;;;5092203;28;20044;-64
2023/10/06 05:41:07;;;;;;;6.65;3.28;;;;;8.30;99535.00;;;;5091225;28;20078;-63
2023/10/06 05:43:34;;;;;;;13.52;4.30;;;;;8.30;99535.00;;;;5092387;28;20079;-63
2023/10/06 05:46:02;;;;;;;5.32;3.30;;;;;8.40;99529.00;;;;5092572;28;20079;-63
2023/10/06 05:48:30;;;;;;;6.57;3.40;;;;;8.50;99543.00;;;;5093684;28;20550;-63
2023/10/06 05:51:08;;;;;;;4.88;3.20;;;;;8.50;99548.00;;;;5097237;28;20118;-63
2023/10/06 05:53:38;;;;;;;5.70;3.30;;;;;8.60;99550.00;;;;5096479;28;20048;-63
2023/10/06 05:56:09;;;;;;;5.93;3.22;;;;;8.70;99557.00;;;;5096356;28;20467;-65
2023/10/06 05:58:40;;;;;;;5.00;2.83;;;;;8.70;99562.00;;;;5096243;28;20039;-64
2023/10/06 06:01:10;;;;;;;4.55;3.40;;;;;8.70;99562.00;;;;5096189;28;20048;-65
2023/10/06 06:03:47;;;;;;;6.82;4.00;;;;;8.70;99568.00;;;;5095606;28;20044;-65
2023/10/06 06:06:15;;;;;;;6.72;4.32;;;;;8.70;99553.00;;;;5095984;28;20044;-65
2023/10/06 06:08:47;;;;;;;7.95;3.75;;;;;8.70;99549.00;;;;5096120;28;20043;-65
2023/10/06 06:11:14;;;;;;;6.53;3.40;;;;;8.70;99555.00;;;;5096418;28;20390;-65
2023/10/06 06:13:42;;;;;;;7.22;3.55;;;;;8.80;99557.00;;;;5096617;28;20072;-65
2023/10/06 06:16:09;;;;;;;5.00;3.22;;;;;8.80;99551.00;;;;5096139;28;20127;-65
2023/10/06 06:18:42;;;;;;;6.03;3.20;;;;;8.80;99547.00;;;;5096039;28;20040;-64
2023/10/06 06:21:09;;;;;;;7.85;3.95;;;;;8.80;99536.00;;;;5094821;28;20110;-65
2023/10/06 06:23:35;;;;;;;5.05;3.28;;;;;8.80;99534.00;;;;5095410;28;20506;-64
2023/10/06 06:26:02;;;;;;;6.25;3.33;;;;;8.80;99537.00;;;;5096458;28;20047;-64
2023/10/06 06:28:29;;;;;;;7.45;3.88;;;;;8.70;99545.00;;;;5096701;28;20047;-64
2023/10/06 06:30:55;;;;;;;8.40;3.67;;;;;8.60;99549.00;;;;5095770;28;20423;-64
2023/10/06 06:33:22;;;;;;;6.20;3.03;;;;;8.50;99555.00;;;;5095146;28;20056;-65
2023/10/06 06:35:49;;;;;;;5.60;3.25;;;;;8.50;99554.00;;;;5096019;28;20040;-65
2023/10/06 06:38:17;;;;;;;4.88;2.90;;;;;8.60;99552.00;;;;5095742;28;20411;-64
2023/10/06 06:40:44;;;;;;;8.55;3.20;;;;;8.70;99556.00;;;;5095911;28;20040;-63
2023/10/06 06:43:10;;;;;;;5.97;3.67;;;;;8.90;99564.00;;;;5095857;28;20500;-65
2023/10/06 06:45:40;;;;;;;7.60;4.78;;;;;9.00;99557.00;;;;5094911;28;20478;-65
2023/10/06 06:48:16;;;;;;;14.52;3.72;;;;;9.10;99576.00;;;;5094878;28;20051;-64
2023/10/06 06:50:43;;;;;;;4.50;3.50;;;;;9.20;99582.00;;;;5095416;28;20105;-64
2023/10/06 06:53:11;;;;;;;7.70;3.58;;;;;9.30;99576.00;;;;5093907;28;20040;-64
2023/10/06 06:55:38;;;;;;;7.00;3.85;;;;;9.60;99578.00;;;;5094602;28;20052;-65
2023/10/06 06:58:11;;;;;;;8.38;3.25;;;;;9.60;99583.00;;;;5094652;28;20078;-65
2023/10/06 07:00:41;;;;;;;8.52;4.13;;;;;9.80;99583.00;;;;5094851;28;20044;-65
2023/10/06 07:03:10;;;;;;;5.63;3.33;;;;;9.90;99573.00;;;;5093752;28;20071;-66
2023/10/06 07:05:38;;;;;;;8.27;3.33;;;;;10.10;99565.00;;;;5094338;28;20080;-65
2023/10/06 07:08:05;;;;;;;4.78;3.30;;;;;10.20;99562.00;;;;5094597;28;20480;-63
2023/10/06 07:10:32;;;;;;;7.25;3.33;;;;;10.30;99562.00;;;;5094776;28;20119;-64
2023/10/06 07:13:00;;;;;;;8.20;3.50;;;;;10.40;99571.00;;;;5093529;28;20052;-64
2023/10/06 07:15:30;;;;;;;6.45;3.50;;;;;10.50;99566.00;;;;5094130;28;20059;-64
2023/10/06 07:17:58;;;;;;;7.78;3.53;;;;;10.60;99563.00;;;;5094547;28;20044;-64
2023/10/06 07:20:28;;;;;;;6.00;3.38;;;;;10.80;99573.00;;;;5094550;28;20052;-64
2023/10/06 07:22:57;;;;;;;7.15;3.58;;;;;10.90;99571.00;;;;5094459;28;20046;-64
2023/10/06 07:25:26;;;;;;;7.97;3.90;;;;;10.90;99571.00;;;;5074659;28;20470;-64
2023/10/06 07:27:55;;;;;;;7.30;3.30;;;;;11.10;99578.00;;;;5085351;28;20072;-64
2023/10/06 07:30:23;;;;;;;8.48;4.43;;;;;11.30;99576.00;;;;5079462;28;20526;-64
2023/10/06 07:32:51;;;;;;;6.80;3.45;;;;;11.50;99573.00;;;;5086109;28;20039;-64
2023/10/06 07:35:20;;;;;;;7.13;3.67;;;;;11.70;99566.00;;;;5087469;28;20501;-64
2023/10/06 07:37:49;;;;;;;6.72;4.50;;;;;11.70;99577.00;;;;5074030;28;20051;-64
2023/10/06 07:40:21;;;;;;;8.00;3.88;;;;;11.90;99576.00;;;;5074158;28;20094;-64
2023/10/06 07:42:51;;;;;;;9.13;3.83;;;;;12.10;99583.00;;;;5074240;28;20052;-64
2023/10/06 07:45:18;;;;;;;5.50;3.40;;;;;12.30;99588.00;;;;5073290;28;20547;-65
2023/10/06 07:47:45;;;;;;;8.93;3.40;;;;;12.50;99592.00;;;;5073807;28;20131;-63
2023/10/06 07:50:14;;;;;;;8.43;3.95;;;;;12.60;99593.00;;;;5073634;28;20036;-65
2023/10/06 07:52:42;;;;;;;12.63;4.07;;;;;12.70;99586.00;;;;5072455;28;20501;-65
2023/10/06 07:55:10;;;;;;;6.18;4.22;;;;;12.80;99584.00;;;;5072972;28;20045;-66
2023/10/06 07:57:41;;;;;;;5.95;3.90;;;;;12.90;99589.00;;;;5073627;28;20512;-66
2023/10/06 08:00:09;;;;;;;10.07;4.22;;;;;12.90;99600.00;;;;5073441;28;20048;-66
2023/10/06 08:02:39;;;;;;;12.63;4.15;;;;;13.00;99598.00;;;;5072230;28;20044;-66
2023/10/06 08:05:08;;;;;;;5.45;3.85;;;;;13.10;99599.00;;;;5071682;28;20044;-66
2023/10/06 08:07:35;;;;;;;6.25;3.80;;;;;13.20;99594.00;;;;5073442;28;20066;-66
2023/10/06 08:10:03;;;;;;;7.78;4.10;;;;;13.20;99598.00;;;;5072170;28;20106;-66
2023/10/06 08:12:33;;;;;;;6.38;4.65;;;;;13.20;99600.00;;;;5072855;28;20041;-66
2023/10/06 08:15:09;;;;;;;5.63;3.80;;;;;13.20;99581.00;;;;5071397;28;20143;-66
2023/10/06 08:17:36;;;;;;;6.85;3.75;;;;;13.40;99591.00;;;;5071839;28;20558;-66
2023/10/06 08:20:07;;;;;;;6.18;4.18;;;;;13.50;99589.00;;;;5071762;28;20098;-67
2023/10/06 08:22:34;;;;;;;5.95;4.05;;;;;13.50;99603.00;;;;5072142;28;20152;-66
2023/10/06 08:25:05;;;;;;;7.45;4.68;;;;;13.60;99608.00;;;;5072875;28;20037;-66
2023/10/06 08:27:33;;;;;;;7.20;4.22;;;;;13.80;99599.00;;;;5073287;28;20041;-67
2023/10/06 08:29:59;;;;;;;5.65;3.90;;;;;13.80;99607.00;;;;5073051;28;20075;-66
2023/10/06 08:32:26;;;;;;;8.15;4.47;;;;;13.80;99602.00;;;;5073051;28;20512;-66
2023/10/06 08:34:53;;;;;;;9.60;4.90;;;;;13.90;99604.00;;;;5070955;28;20044;-67
2023/10/06 08:37:20;;;;;;;12.18;5.00;;;;;14.10;99594.00;;;;5071577;28;20497;-67
2023/10/06 08:39:47;;;;;;;8.88;4.45;;;;;14.10;99598.00;;;;5071345;28;20476;-67
2023/10/06 08:42:15;;;;;;;7.68;5.10;;;;;13.90;99600.00;;;;5072907;28;20120;-66
2023/10/06 08:44:42;;;;;;;10.57;5.53;;;;;14.00;99609.00;;;;5072213;28;20058;-67
2023/10/06 08:47:12;;;;;;;7.93;5.10;;;;;14.10;99606.00;;;;5074335;28;20045;-67
2023/10/06 08:49:56;;;;;;;12.05;5.75;;;;;14.30;99601.00;;;;5072895;28;20040;-67
2023/10/06 08:52:23;;;;;;;9.77;5.47;;;;;14.40;99591.00;;;;5071685;28;20481;-67
2023/10/06 08:54:50;;;;;;;11.75;5.22;;;;;14.60;99591.00;;;;5073068;28;20115;-66
2023/10/06 08:57:16;;;;;;;12.48;6.32;;;;;14.70;99592.00;;;;5072798;28;20068;-67
2023/10/06 08:59:44;;;;;;;10.73;5.75;;;;;14.70;99590.00;;;;5072699;28;20037;-64
2023/10/06 09:02:12;;;;;;;8.55;5.07;;;;;14.70;99603.00;;;;5072824;28;20076;-64
2023/10/06 09:04:38;;;;;;;8.38;5.88;;;;;14.70;99594.00;;;;5070896;28;20094;-65
2023/10/06 09:07:12;;;;;;;12.60;5.38;;;;;14.80;99590.00;;;;5072704;28;20551;-65
2023/10/06 09:09:43;;;;;;;7.05;5.00;;;;;14.90;99587.00;;;;5072873;28;20037;-65
2023/10/06 09:12:23;;;;;;;10.32;5.10;;;;;15.00;99586.00;;;;5072381;28;20048;-65
2023/10/06 09:14:54;;;;;;;11.60;5.47;;;;;15.10;99590.00;;;;5070584;28;20059;-66
2023/10/06 09:17:31;;;;;;;8.43;5.40;;;;;15.20;99582.00;;;;5072226;28;20517;-66
2023/10/06 09:19:59;;;;;;;11.32;5.70;;;;;15.30;99571.00;;;;5070799;28;20378;-66
2023/10/06 09:22:29;;;;;;;15.98;6.55;;;;;15.30;99575.00;;;;5070806;28;20063;-66
2023/10/06 09:25:04;;;;;;;13.70;5.75;;;;;15.40;99577.00;;;;5053476;28;20052;-66
2023/10/06 09:27:37;;;;;;;7.70;5.35;;;;;15.50;99572.00;;;;5072066;28;20472;-66
2023/10/06 09:30:11;;;;;;;9.07;5.53;;;;;15.70;99563.00;;;;5072123;28;20082;-66
2023/10/06 09:32:39;;;;;;;14.30;5.20;;;;;15.80;99570.00;;;;5071921;28;20049;-65
2023/10/06 09:35:22;;;;;;;9.98;5.93;;;;;15.90;99572.00;;;;5071395;28;20040;-66
2023/10/06 09:37:51;;;;;;;10.98;4.90;;;;;16.10;99573.00;;;;5072097;28;20049;-66
2023/10/06 09:40:21;;;;;;;8.93;4.82;;;;;16.10;99569.00;;;;5070853;28;20098;-66
2023/10/06 09:42:51;;;;;;;8.77;4.30;;;;;16.20;99565.00;;;;5071932;28;20065;-66
2023/10/06 09:45:21;;;;;;;9.95;3.92;;;;;16.40;99568.00;;;;5070848;28;20378;-66
2023/10/06 09:47:56;;;;;;;7.93;4.05;;;;;16.40;99569.00;;;;5072815;28;20044;-66
2023/10/06 09:50:23;;;;;;;8.85;4.53;;;;;16.50;99557.00;;;;5073317;28;20040;-66
2023/10/06 09:52:51;;;;;;;9.40;3.92;;;;;16.60;99561.00;;;;5072783;28;20044;-66
2023/10/06 09:55:20;;;;;;;13.60;3.65;;;;;16.70;99561.00;;;;5071695;28;20051;-66
2023/10/06 09:57:50;;;;;;;8.30;3.55;;;;;16.80;99549.00;;;;5072139;28;20456;-66
2023/10/06 10:00:19;;;;;;;7.88;3.75;;;;;16.90;99549.00;;;;5072064;28;20102;-66
2023/10/06 10:02:48;;;;;;;7.78;3.22;;;;;17.00;99551.00;;;;5071057;28;20079;-66
2023/10/06 10:05:18;;;;;;;31.95;6.82;;;;;17.10;99554.00;;;;5070387;28;20458;-66
2023/10/06 10:07:49;;;;;;;6.72;3.33;;;;;17.20;99554.00;;;;5072074;28;20097;-66
2023/10/06 10:10:27;;;;;;;8.68;3.30;;;;;17.30;99548.00;;;;5072377;28;20041;-65
2023/10/06 10:13:07;;;;;;;7.88;3.38;;;;;17.40;99566.00;;;;5073018;28;20053;-67
2023/10/06 10:16:02;;;;;;;11.23;3.13;;;;;17.50;99557.00;;;;5090586;28;20052;-66
2023/10/06 10:18:35;;;;;;;8.40;2.90;;;;;17.60;99562.00;;;;5092015;28;20127;-67
2023/10/06 10:21:04;;;;;;;13.45;6.38;;;;;17.70;99553.00;;;;5092352;28;20051;-67
2023/10/06 10:23:30;;;;;;;10.60;3.95;;;;;17.70;99553.00;;;;5091505;28;20450;-67
2023/10/06 10:26:18;;;;;;;5.57;2.58;;;;;17.80;99554.00;;;;5090581;28;20554;-67
2023/10/06 10:29:13;;;;;;;9.57;3.63;;;;;18.00;99549.00;;;;5091837;28;20058;-66
2023/10/06 10:31:42;;;;;;;6.47;3.08;;;;;18.10;99548.00;;;;5091922;28;20511;-67
2023/10/06 10:34:33;;;;;;;5.25;2.95;;;;;18.20;99547.00;;;;5091191;28;20588;-68
2023/10/06 10:37:08;;;;;;;5.45;2.55;;;;;18.20;99532.00;;;;5094738;28;20040;-68
2023/10/06 10:39:51;;;;;;;4.80;2.72;;;;;18.30;99535.00;;;;5095235;28;20549;-67
2023/10/06 10:42:23;;;;;;;5.88;2.50;;;;;18.40;99541.00;;;;5095268;28;20054;-66
2023/10/06 10:45:34;;;;;;;7.57;2.67;;;;;18.40;99537.00;;;;5094319;28;20094;-67
2023/10/06 10:48:14;;;;;;;7.20;3.13;;;;;18.40;99549.00;;;;5094877;28;20036;-66
2023/10/06 10:50:57;;;;;;;7.07;2.78;;;;;18.40;99547.00;;;;5095076;28;20078;-67
2023/10/06 10:53:29;;;;;;;5.03;2.93;;;;;18.50;99550.00;;;;5093745;28;20493;-67
2023/10/06 10:55:56;;;;;;;5.47;2.83;;;;;18.50;99545.00;;;;5094868;28;20278;-67
2023/10/06 10:58:41;;;;;;;7.85;3.08;;;;;18.60;99536.00;;;;5093812;28;20497;-66
2023/10/06 11:01:41;;;;;;;4.85;2.83;;;;;18.70;99536.00;;;;5093567;28;20486;-67
2023/10/06 11:06:58;;;;;;;7.38;3.20;;;;;18.70;99533.00;;;;5093596;28;20492;-67
2023/10/06 11:09:29;;;;;;;6.22;2.58;;;;;18.80;99526.00;;;;5094937;28;20505;-67
2023/10/06 11:12:01;;;;;;;5.50;2.10;;;;;18.90;99527.00;;;;5093357;28;20079;-67
2023/10/06 11:14:51;;;;;;;12.02;3.00;;;;;19.10;99521.00;;;;5094358;28;20040;-67
2023/10/06 11:17:23;;;;;;;11.40;3.42;;;;;19.20;99527.00;;;;5094581;28;20051;-67
2023/10/06 11:20:13;;;;;;;3.97;3.20;;;;;19.40;99523.00;;;;5094432;28;20079;-67
2023/10/06 11:22:54;;;;;;;9.20;2.92;;;;;19.40;99523.00;;;;5094386;28;20180;-67
2023/10/06 11:25:28;;;;;;;5.90;2.58;;;;;19.40;99524.00;;;;5093902;28;20044;-67
2023/10/06 11:27:56;;;;;;;7.65;3.00;;;;;19.30;99523.00;;;;5093172;28;20067;-67
2023/10/06 11:30:25;;;;;;;6.70;3.08;;;;;19.30;99524.00;;;;5094282;28;20064;-67
2023/10/06 11:32:56;;;;;;;7.60;3.20;;;;;19.20;99517.00;;;;5094303;28;20070;-66
2023/10/06 11:35:24;;;;;;;9.60;4.30;;;;;19.10;99510.00;;;;5075687;28;20079;-67
2023/10/06 11:37:51;;;;;;;4.80;2.95;;;;;19.30;99502.00;;;;5093159;28;20040;-67
2023/10/06 11:40:18;;;;;;;6.63;2.95;;;;;19.50;99495.00;;;;5093972;28;20516;-67
2023/10/06 11:42:44;;;;;;;7.53;3.15;;;;;19.60;99485.00;;;;5094208;28;20071;-67
2023/10/06 11:45:25;;;;;;;4.75;2.92;;;;;19.70;99501.00;;;;5091998;28;20078;-67
2023/10/06 11:47:52;;;;;;;6.35;2.88;;;;;19.90;99498.00;;;;5093829;28;20105;-67
2023/10/06 11:50:25;;;;;;;7.10;3.65;;;;;20.00;99496.00;;;;5094210;28;20047;-67
2023/10/06 11:52:52;;;;;;;10.13;3.75;;;;;20.00;99491.00;;;;5094059;28;20101;-66
2023/10/06 11:55:31;;;;;;;10.60;3.75;;;;;20.00;99487.00;;;;5093233;28;20071;-67
2023/10/06 11:58:01;;;;;;;6.22;4.05;;;;;20.10;99490.00;;;;5092535;28;20048;-67
2023/10/06 12:00:36;;;;;;;7.03;4.05;;;;;20.10;99494.00;;;;5093810;28;20077;-66
2023/10/06 12:03:03;;;;;;;8.70;4.28;;;;;20.10;99483.00;;;;5093765;28;20551;-67
2023/10/06 12:05:30;;;;;;;7.70;4.28;;;;;20.30;99472.00;;;;5091890;28;20393;-67
2023/10/06 12:08:03;;;;;;;9.45;4.60;;;;;20.40;99476.00;;;;5092669;28;20048;-67
2023/10/06 12:10:32;;;;;;;9.18;4.70;;;;;20.50;99472.00;;;;5094177;28;20044;-67
2023/10/06 12:13:00;;;;;;;8.73;4.93;;;;;20.60;99469.00;;;;5094385;28;20852;-67
2023/10/06 12:15:29;;;;;;;7.38;4.15;;;;;20.70;99462.00;;;;5091759;28;20389;-66
2023/10/06 12:17:56;;;;;;;9.15;4.22;;;;;20.90;99459.00;;;;5092905;28;20052;-67
2023/10/06 12:20:24;;;;;;;12.43;5.40;;;;;21.00;99454.00;;;;5092143;28;20497;-66
2023/10/06 12:22:53;;;;;;;8.25;5.10;;;;;21.00;99463.00;;;;5093437;28;20123;-66
2023/10/06 12:25:23;;;;;;;10.75;4.80;;;;;20.90;99464.00;;;;5092962;28;20051;-68
2023/10/06 12:27:51;;;;;;;7.13;4.63;;;;;20.80;99461.00;;;;5093385;28;20055;-67
2023/10/06 12:30:19;;;;;;;7.20;4.75;;;;;20.70;99455.00;;;;5092489;28;20085;-67
2023/10/06 12:32:45;;;;;;;8.27;4.78;;;;;20.60;99452.00;;;;5093494;28;20492;-67
2023/10/06 12:35:18;;;;;;;7.75;4.57;;;;;20.60;99445.00;;;;5092637;28;20070;-67
2023/10/06 12:37:46;;;;;;;7.90;4.63;;;;;20.70;99458.00;;;;5093043;28;20505;-67
2023/10/06 12:40:15;;;;;;;8.60;4.20;;;;;20.70;99450.00;;;;5092819;28;20067;-67
2023/10/06 12:42:43;;;;;;;8.35;4.45;;;;;20.80;99444.00;;;;5093491;28;20516;-67
2023/10/06 12:45:13;;;;;;;10.60;4.15;;;;;20.90;99446.00;;;;5092412;28;20115;-67
2023/10/06 12:47:40;;;;;;;8.38;4.72;;;;;21.00;99447.00;;;;5091590;28;20411;-67
2023/10/06 12:50:08;;;;;;;9.30;4.88;;;;;21.00;99436.00;;;;5092887;28;20036;-67